Time;durP1;ratioP1;P1;durP2;ratioP2;P2;SDS_P1;SDS_P2;PMS_P1;PMS_P2;Temp;Humidity;BMP_temperature;BMP_pressure;BME280_temperature;BME280_humidity;BME280_pressure;Samples;Min_cycle;Max_cycle;Signal;HPM_P1;HPM_P2
2023/12/06 00:01:33;;;;;;;42.22;26.35;;;;;;;;;;5074504;28;20497;-70
2023/12/06 00:03:59;;;;;;;42.40;25.83;;;;;;;;;;5070083;28;20040;-70
2023/12/06 00:06:26;;;;;;;40.00;26.08;;;;;;;;;;5081947;28;20063;-70
2023/12/06 00:08:53;;;;;;;43.53;27.38;;;;;;;;;;5073565;28;20070;-70
2023/12/06 00:11:19;;;;;;;45.25;26.13;;;;;;;;;;5068326;28;20041;-70
2023/12/06 00:13:45;;;;;;;41.25;26.30;;;;;;;;;;5072603;28;20024;-70
2023/12/06 00:16:11;;;;;;;42.60;26.60;;;;;;;;;;5075172;28;20135;-71
2023/12/06 00:18:38;;;;;;;42.65;27.13;;;;;;;;;;5081160;28;20089;-71
2023/12/06 00:21:04;;;;;;;42.28;25.77;;;;;;;;;;5083146;28;20397;-70
2023/12/06 00:23:30;;;;;;;45.67;25.88;;;;;;;;;;5081646;28;20044;-71
2023/12/06 00:25:57;;;;;;;46.22;25.73;;;;;;;;;;5073651;28;20033;-70
2023/12/06 00:28:23;;;;;;;45.33;26.50;;;;;;;;;;5069046;28;20107;-71
2023/12/06 00:30:49;;;;;;;40.67;26.70;;;;;;;;;;5081750;28;20032;-71
2023/12/06 00:33:15;;;;;;;45.65;27.88;;;;;;;;;;5082235;28;20028;-72
2023/12/06 00:35:41;;;;;;;44.47;26.92;;;;;;;;;;5081378;28;20486;-71
2023/12/06 00:38:07;;;;;;;39.85;26.08;;;;;;;;;;5084206;28;20770;-71
2023/12/06 00:40:34;;;;;;;44.20;24.67;;;;;;;;;;5075134;28;20484;-70
2023/12/06 00:43:00;;;;;;;37.85;23.70;;;;;;;;;;5077019;28;20513;-71
2023/12/06 00:45:26;;;;;;;46.38;26.95;;;;;;;;;;5069054;28;20079;-71
2023/12/06 00:47:52;;;;;;;50.60;25.85;;;;;;;;;;5078526;28;20294;-71
2023/12/06 00:50:18;;;;;;;45.35;25.67;;;;;;;;;;5083562;28;20051;-70
2023/12/06 00:52:44;;;;;;;41.20;24.85;;;;;;;;;;5074121;28;20478;-70
2023/12/06 00:55:10;;;;;;;41.58;25.65;;;;;;;;;;5088035;28;20607;-70
2023/12/06 00:57:36;;;;;;;35.25;22.92;;;;;;;;;;5079718;28;20507;-70
2023/12/06 01:00:02;;;;;;;38.45;23.85;;;;;;;;;;5068931;28;20120;-71
2023/12/06 01:02:29;;;;;;;40.42;24.13;;;;;;;;;;5074445;28;20040;-70
2023/12/06 01:04:55;;;;;;;39.92;25.33;;;;;;;;;;5081668;28;20075;-70
2023/12/06 01:07:21;;;;;;;39.80;24.73;;;;;;;;;;5080536;28;20036;-71
2023/12/06 01:09:47;;;;;;;37.53;23.45;;;;;;;;;;5083549;28;20020;-71
2023/12/06 01:12:13;;;;;;;38.15;24.23;;;;;;;;;;5090233;28;20074;-70
2023/12/06 01:14:39;;;;;;;36.95;23.30;;;;;;;;;;5083087;28;20043;-70
2023/12/06 01:17:05;;;;;;;37.28;23.92;;;;;;;;;;5073086;28;20090;-70
2023/12/06 01:19:31;;;;;;;35.20;23.90;;;;;;;;;;5083048;28;20047;-70
2023/12/06 01:21:57;;;;;;;34.55;21.75;;;;;;;;;;5091494;28;20036;-71
2023/12/06 01:24:24;;;;;;;33.80;22.20;;;;;;;;;;5078054;28;20036;-70
2023/12/06 01:26:50;;;;;;;32.50;20.95;;;;;;;;;;5076537;28;20083;-69
2023/12/06 01:29:16;;;;;;;33.55;22.80;;;;;;;;;;5079427;28;20031;-72
2023/12/06 01:31:42;;;;;;;36.90;23.15;;;;;;;;;;5092673;28;20036;-72
2023/12/06 01:34:08;;;;;;;34.58;22.15;;;;;;;;;;5079338;28;20043;-72
2023/12/06 01:36:37;;;;;;;35.05;22.58;;;;;;;;;;5072542;28;20067;-69
2023/12/06 01:39:03;;;;;;;34.45;20.92;;;;;;;;;;5078893;28;20073;-70
2023/12/06 01:41:29;;;;;;;34.58;22.48;;;;;;;;;;5074293;28;20102;-70
2023/12/06 01:43:55;;;;;;;30.25;20.33;;;;;;;;;;5077834;28;20040;-71
2023/12/06 01:46:21;;;;;;;34.83;21.15;;;;;;;;;;5074982;28;20037;-70
2023/12/06 01:48:48;;;;;;;33.95;21.55;;;;;;;;;;5072990;28;20032;-70
2023/12/06 01:51:15;;;;;;;31.73;18.95;;;;;;;;;;5072830;28;20024;-70
2023/12/06 01:53:41;;;;;;;28.33;19.85;;;;;;;;;;5076250;28;20504;-71
2023/12/06 01:56:08;;;;;;;29.63;19.38;;;;;;;;;;5077779;28;20043;-71
2023/12/06 01:58:35;;;;;;;28.58;20.00;;;;;;;;;;5075322;28;20482;-70
2023/12/06 02:01:02;;;;;;;28.90;19.05;;;;;;;;;;5079331;28;20024;-69
2023/12/06 02:03:28;;;;;;;30.58;20.05;;;;;;;;;;5085550;28;20032;-69
2023/12/06 02:05:54;;;;;;;28.52;18.85;;;;;;;;;;5072787;28;20106;-70
2023/12/06 02:08:20;;;;;;;29.92;18.90;;;;;;;;;;5090266;28;21694;-69
2023/12/06 02:10:46;;;;;;;27.70;17.40;;;;;;;;;;5079620;28;20506;-69
2023/12/06 02:13:12;;;;;;;28.45;18.25;;;;;;;;;;5085347;28;20489;-70
2023/12/06 02:15:39;;;;;;;28.63;18.27;;;;;;;;;;5081059;28;20047;-70
2023/12/06 02:18:05;;;;;;;28.42;17.50;;;;;;;;;;5077839;28;20020;-70
2023/12/06 02:20:31;;;;;;;25.90;16.45;;;;;;;;;;5081762;28;20113;-70
2023/12/06 02:22:58;;;;;;;27.08;17.40;;;;;;;;;;5070806;28;20033;-70
2023/12/06 02:25:24;;;;;;;30.25;18.67;;;;;;;;;;5076454;28;20059;-70
2023/12/06 02:27:50;;;;;;;25.80;17.75;;;;;;;;;;5072743;28;20052;-69
2023/12/06 02:30:17;;;;;;;27.17;17.42;;;;;;;;;;5087304;28;20116;-70
2023/12/06 02:32:43;;;;;;;25.35;17.13;;;;;;;;;;5079865;28;20043;-70
2023/12/06 02:35:15;;;;;;;27.20;17.77;;;;;;;;;;5085811;28;20079;-70
2023/12/06 02:37:42;;;;;;;29.65;18.85;;;;;;;;;;5077368;28;20029;-69
2023/12/06 02:40:09;;;;;;;27.25;16.42;;;;;;;;;;5084343;28;20089;-69
2023/12/06 02:42:36;;;;;;;22.70;15.73;;;;;;;;;;5070694;28;20024;-70
2023/12/06 02:45:02;;;;;;;26.63;17.08;;;;;;;;;;5075271;28;20032;-69
2023/12/06 02:47:29;;;;;;;21.40;15.27;;;;;;;;;;5082844;28;20381;-70
2023/12/06 02:49:55;;;;;;;28.42;16.95;;;;;;;;;;5089649;28;20473;-71
2023/12/06 02:52:21;;;;;;;28.95;16.58;;;;;;;;;;5082754;28;20393;-70
2023/12/06 02:54:47;;;;;;;25.27;15.88;;;;;;;;;;5086240;28;20081;-69
2023/12/06 02:57:13;;;;;;;23.17;15.65;;;;;;;;;;5085976;28;20115;-70
2023/12/06 02:59:39;;;;;;;22.58;15.38;;;;;;;;;;5091263;28;20035;-69
2023/12/06 03:02:05;;;;;;;27.50;16.85;;;;;;;;;;5081292;28;20107;-69
2023/12/06 03:04:31;;;;;;;23.92;15.60;;;;;;;;;;5076077;28;20052;-70
2023/12/06 03:06:57;;;;;;;21.13;15.23;;;;;;;;;;5083572;28;20051;-70
2023/12/06 03:09:23;;;;;;;20.20;14.30;;;;;;;;;;5082066;28;20036;-69
2023/12/06 03:11:49;;;;;;;21.17;15.05;;;;;;;;;;5088275;28;20421;-69
2023/12/06 03:14:15;;;;;;;22.02;15.07;;;;;;;;;;5070041;28;20514;-69
2023/12/06 03:16:41;;;;;;;20.60;14.05;;;;;;;;;;5082795;28;20081;-69
2023/12/06 03:19:07;;;;;;;23.63;15.45;;;;;;;;;;5070932;28;20085;-70
2023/12/06 03:21:33;;;;;;;24.05;15.32;;;;;;;;;;5090137;28;20024;-69
2023/12/06 03:23:59;;;;;;;21.90;15.18;;;;;;;;;;5080078;28;20035;-70
2023/12/06 03:26:25;;;;;;;22.17;15.43;;;;;;;;;;5088085;28;20075;-70
2023/12/06 03:28:52;;;;;;;22.73;15.60;;;;;;;;;;5071742;28;20047;-71
2023/12/06 03:31:18;;;;;;;23.20;16.08;;;;;;;;;;5077596;28;20036;-70
2023/12/06 03:33:44;;;;;;;19.75;15.00;;;;;;;;;;5071719;28;20493;-70
2023/12/06 03:36:10;;;;;;;25.15;15.68;;;;;;;;;;5079134;28;20051;-70
2023/12/06 03:38:36;;;;;;;25.35;14.93;;;;;;;;;;5078558;28;20115;-70
2023/12/06 03:41:03;;;;;;;26.58;16.60;;;;;;;;;;5069982;28;20466;-70
2023/12/06 03:43:29;;;;;;;24.73;16.02;;;;;;;;;;5076928;28;20473;-70
2023/12/06 03:45:55;;;;;;;21.02;14.70;;;;;;;;;;5077969;28;20477;-69
2023/12/06 03:48:21;;;;;;;24.35;16.50;;;;;;;;;;5080840;28;20028;-70
2023/12/06 03:50:47;;;;;;;19.98;14.75;;;;;;;;;;5073888;28;20144;-69
2023/12/06 03:53:13;;;;;;;24.00;15.73;;;;;;;;;;5068719;28;20036;-70
2023/12/06 03:55:39;;;;;;;22.60;15.07;;;;;;;;;;5068909;28;20067;-70
2023/12/06 03:58:06;;;;;;;19.83;13.57;;;;;;;;;;5068171;28;20086;-69
2023/12/06 04:00:32;;;;;;;21.95;15.15;;;;;;;;;;5086135;28;20032;-70
2023/12/06 04:02:58;;;;;;;26.83;15.10;;;;;;;;;;5078053;28;20035;-70
2023/12/06 04:05:25;;;;;;;20.38;14.68;;;;;;;;;;5070556;28;20063;-70
2023/12/06 04:07:51;;;;;;;22.40;15.25;;;;;;;;;;5071927;28;20036;-70
2023/12/06 04:10:17;;;;;;;22.83;13.85;;;;;;;;;;5081232;28;20029;-69
2023/12/06 04:12:43;;;;;;;21.15;15.15;;;;;;;;;;5077622;28;20055;-70
2023/12/06 04:15:11;;;;;;;20.90;14.63;;;;;;;;;;5067463;28;20048;-70
2023/12/06 04:17:37;;;;;;;20.85;14.55;;;;;;;;;;5078721;28;20056;-71
2023/12/06 04:20:05;;;;;;;20.00;14.77;;;;;;;;;;5084375;28;20102;-72
2023/12/06 04:22:31;;;;;;;19.58;14.65;;;;;;;;;;5072857;28;20397;-71
2023/12/06 04:24:57;;;;;;;18.63;14.63;;;;;;;;;;5087319;28;20046;-68
2023/12/06 04:27:23;;;;;;;19.58;14.43;;;;;;;;;;5072274;28;20048;-69
2023/12/06 04:29:50;;;;;;;20.95;14.98;;;;;;;;;;5087670;28;20028;-67
2023/12/06 04:32:16;;;;;;;21.35;14.23;;;;;;;;;;5072543;28;20037;-69
2023/12/06 04:34:54;;;;;;;20.88;14.05;;;;;;;;;;5068847;28;20029;-69
2023/12/06 04:37:20;;;;;;;20.42;14.23;;;;;;;;;;5077540;28;20028;-68
2023/12/06 04:39:46;;;;;;;18.65;13.02;;;;;;;;;;5079707;28;20020;-71
2023/12/06 04:42:12;;;;;;;23.70;13.90;;;;;;;;;;5083072;28;20025;-72
2023/12/06 04:44:38;;;;;;;18.88;13.75;;;;;;;;;;5074202;28;20039;-71
2023/12/06 04:47:04;;;;;;;20.38;13.60;;;;;;;;;;5089861;28;20044;-71
2023/12/06 04:49:30;;;;;;;17.67;13.25;;;;;;;;;;5091227;28;20101;-71
2023/12/06 04:51:56;;;;;;;18.88;13.45;;;;;;;;;;5081806;28;20123;-71
2023/12/06 04:54:25;;;;;;;20.17;13.90;;;;;;;;;;5086306;28;20042;-71
2023/12/06 04:56:51;;;;;;;18.90;12.90;;;;;;;;;;5087014;28;20470;-69
2023/12/06 04:59:17;;;;;;;19.83;12.18;;;;;;;;;;5075883;28;20036;-69
2023/12/06 05:01:44;;;;;;;22.20;12.90;;;;;;;;;;5079404;28;20024;-69
2023/12/06 05:04:12;;;;;;;20.05;13.10;;;;;;;;;;5075700;28;20758;-69
2023/12/06 05:06:38;;;;;;;17.35;12.20;;;;;;;;;;5082433;28;20028;-69
2023/12/06 05:09:04;;;;;;;19.42;12.75;;;;;;;;;;5084891;28;20107;-69
2023/12/06 05:11:31;;;;;;;19.15;12.60;;;;;;;;;;5078716;28;20068;-69
2023/12/06 05:13:57;;;;;;;17.27;12.32;;;;;;;;;;5079943;28;20036;-69
2023/12/06 05:16:24;;;;;;;18.98;12.30;;;;;;;;;;5080707;28;20043;-69
2023/12/06 05:18:50;;;;;;;21.63;12.93;;;;;;;;;;5079473;28;20031;-69
2023/12/06 05:21:17;;;;;;;16.20;12.25;;;;;;;;;;5081636;28;20029;-70
2023/12/06 05:23:43;;;;;;;15.93;12.15;;;;;;;;;;5092769;28;20114;-70
2023/12/06 05:26:09;;;;;;;15.23;12.15;;;;;;;;;;5083536;28;20513;-69
2023/12/06 05:28:35;;;;;;;16.90;11.07;;;;;;;;;;5088136;28;20112;-69
2023/12/06 05:31:01;;;;;;;14.40;11.60;;;;;;;;;;5090502;28;20036;-69
2023/12/06 05:33:27;;;;;;;16.10;12.75;;;;;;;;;;5075362;28;20063;-70
2023/12/06 05:35:55;;;;;;;17.98;12.23;;;;;;;;;;5077111;28;20063;-69
2023/12/06 05:38:21;;;;;;;15.45;11.07;;;;;;;;;;5077943;28;20039;-70
2023/12/06 05:40:47;;;;;;;19.98;10.63;;;;;;;;;;5073825;28;20028;-70
2023/12/06 05:43:13;;;;;;;17.23;10.73;;;;;;;;;;5074472;28;20028;-70
2023/12/06 05:45:39;;;;;;;15.75;11.60;;;;;;;;;;5077315;28;20381;-69
2023/12/06 05:48:05;;;;;;;16.50;10.88;;;;;;;;;;5078891;28;20904;-69
2023/12/06 05:50:32;;;;;;;16.88;11.10;;;;;;;;;;5084608;28;20512;-70
2023/12/06 05:52:58;;;;;;;15.07;11.02;;;;;;;;;;5084289;28;20031;-69
2023/12/06 05:55:24;;;;;;;19.60;10.93;;;;;;;;;;5072609;28;20041;-69
2023/12/06 05:57:50;;;;;;;15.38;11.52;;;;;;;;;;5072404;28;20036;-69
2023/12/06 06:00:17;;;;;;;16.15;11.18;;;;;;;;;;5073434;28;20036;-69
2023/12/06 06:02:43;;;;;;;16.48;11.38;;;;;;;;;;5087022;28;20036;-70
2023/12/06 06:05:10;;;;;;;13.55;10.23;;;;;;;;;;5071386;28;20486;-70
2023/12/06 06:07:36;;;;;;;14.07;9.70;;;;;;;;;;5075694;28;20064;-70
2023/12/06 06:10:03;;;;;;;17.88;11.13;;;;;;;;;;5077435;28;20116;-69
2023/12/06 06:12:29;;;;;;;17.42;10.18;;;;;;;;;;5078344;28;20035;-69
2023/12/06 06:14:55;;;;;;;15.80;10.85;;;;;;;;;;5085888;28;20032;-69
2023/12/06 06:17:21;;;;;;;15.30;11.48;;;;;;;;;;5071201;28;20035;-70
2023/12/06 06:19:47;;;;;;;14.13;10.13;;;;;;;;;;5071574;28;20094;-70
2023/12/06 06:22:13;;;;;;;14.75;10.63;;;;;;;;;;5071709;28;20111;-70
2023/12/06 06:24:39;;;;;;;17.95;11.55;;;;;;;;;;5077709;28;20579;-70
2023/12/06 06:27:05;;;;;;;15.50;10.30;;;;;;;;;;5079267;28;20452;-70
2023/12/06 06:29:31;;;;;;;13.57;9.80;;;;;;;;;;5081422;28;20850;-70
2023/12/06 06:31:57;;;;;;;15.63;10.50;;;;;;;;;;5091367;28;20116;-70
2023/12/06 06:34:23;;;;;;;15.68;9.82;;;;;;;;;;5074479;28;20040;-70
2023/12/06 06:36:49;;;;;;;14.68;10.10;;;;;;;;;;5074493;28;20433;-70
2023/12/06 06:39:16;;;;;;;13.77;9.85;;;;;;;;;;5076924;28;20055;-70
2023/12/06 06:41:42;;;;;;;16.10;10.55;;;;;;;;;;5085017;28;20035;-70
2023/12/06 06:44:08;;;;;;;15.63;12.07;;;;;;;;;;5080805;28;20553;-70
2023/12/06 06:46:34;;;;;;;16.08;10.52;;;;;;;;;;5082381;28;20040;-70
2023/12/06 06:49:00;;;;;;;15.25;10.05;;;;;;;;;;5077972;28;20104;-70
2023/12/06 06:51:33;;;;;;;13.68;10.20;;;;;;;;;;5087970;28;20032;-70
2023/12/06 06:53:59;;;;;;;16.55;9.32;;;;;;;;;;5073201;28;20029;-70
2023/12/06 06:56:25;;;;;;;18.42;10.32;;;;;;;;;;5071411;28;20086;-71
2023/12/06 06:58:51;;;;;;;17.83;9.55;;;;;;;;;;5086082;28;20037;-70
2023/12/06 07:01:18;;;;;;;16.00;9.90;;;;;;;;;;5076134;28;20029;-70
2023/12/06 07:03:44;;;;;;;17.40;10.40;;;;;;;;;;5078379;28;20036;-72
2023/12/06 07:06:10;;;;;;;18.60;9.45;;;;;;;;;;5071288;28;20064;-71
2023/12/06 07:08:37;;;;;;;13.20;10.27;;;;;;;;;;5083132;28;20036;-71
2023/12/06 07:11:04;;;;;;;17.17;9.88;;;;;;;;;;5082141;28;20136;-71
2023/12/06 07:13:31;;;;;;;14.02;10.38;;;;;;;;;;5075256;28;20043;-74
2023/12/06 07:15:58;;;;;;;18.20;11.02;;;;;;;;;;5080444;28;20028;-71
2023/12/06 07:18:24;;;;;;;18.50;10.40;;;;;;;;;;5095474;28;20025;-71
2023/12/06 07:20:51;;;;;;;17.80;12.23;;;;;;;;;;5091999;28;20047;-69
2023/12/06 07:23:18;;;;;;;17.65;10.32;;;;;;;;;;5071837;28;20036;-71
2023/12/06 07:25:44;;;;;;;17.88;10.85;;;;;;;;;;5074361;28;20505;-73
2023/12/06 07:28:10;;;;;;;17.95;11.27;;;;;;;;;;5084593;28;20104;-72
2023/12/06 07:30:36;;;;;;;13.55;9.73;;;;;;;;;;5076606;28;20036;-72
2023/12/06 07:33:02;;;;;;;19.13;10.93;;;;;;;;;;5075137;28;20036;-73
2023/12/06 07:35:28;;;;;;;16.65;10.07;;;;;;;;;;5076239;28;20347;-74
2023/12/06 07:37:54;;;;;;;25.40;14.85;;;;;;;;;;5089222;28;20086;-71
2023/12/06 07:40:21;;;;;;;26.40;17.02;;;;;;;;;;5090305;28;20058;-72
2023/12/06 07:42:48;;;;;;;15.90;10.93;;;;;;;;;;5069259;28;20335;-72
2023/12/06 07:45:14;;;;;;;14.93;10.85;;;;;;;;;;5082486;28;20106;-72
2023/12/06 07:47:41;;;;;;;16.60;11.15;;;;;;;;;;5080808;28;20062;-73
2023/12/06 07:50:07;;;;;;;14.32;10.60;;;;;;;;;;5086186;28;20447;-72
2023/12/06 07:52:34;;;;;;;18.27;11.55;;;;;;;;;;5080849;28;20040;-72
2023/12/06 07:55:00;;;;;;;18.02;11.57;;;;;;;;;;5089884;28;20047;-73
2023/12/06 07:57:28;;;;;;;17.98;11.45;;;;;;;;;;5074845;28;20016;-72
2023/12/06 07:59:58;;;;;;;16.77;10.52;;;;;;;;;;5069570;28;20521;-72
2023/12/06 08:02:24;;;;;;;14.00;10.95;;;;;;;;;;5088929;28;20017;-72
2023/12/06 08:04:51;;;;;;;16.48;11.70;;;;;;;;;;5090942;28;20052;-72
2023/12/06 08:07:17;;;;;;;14.23;10.23;;;;;;;;;;5078177;28;20107;-72
2023/12/06 08:09:43;;;;;;;18.20;11.35;;;;;;;;;;5079183;28;20401;-72
2023/12/06 08:12:09;;;;;;;16.08;11.38;;;;;;;;;;5084715;28;20028;-72
2023/12/06 08:14:35;;;;;;;18.60;10.93;;;;;;;;;;5085478;28;20032;-71
2023/12/06 08:17:01;;;;;;;16.33;10.93;;;;;;;;;;5081475;28;20025;-71
2023/12/06 08:19:27;;;;;;;15.63;10.90;;;;;;;;;;5080751;28;20424;-72
2023/12/06 08:21:55;;;;;;;21.92;11.00;;;;;;;;;;5077829;28;20060;-72
2023/12/06 08:24:21;;;;;;;165.93;100.32;;;;;;;;;;5077333;28;20060;-72
2023/12/06 08:26:47;;;;;;;24.13;13.90;;;;;;;;;;5084499;28;20048;-72
2023/12/06 08:29:13;;;;;;;15.27;11.55;;;;;;;;;;5082642;28;20044;-72
2023/12/06 08:31:39;;;;;;;18.08;12.50;;;;;;;;;;5085345;28;20027;-73
2023/12/06 08:34:05;;;;;;;16.67;10.98;;;;;;;;;;5094023;28;20035;-72
2023/12/06 08:36:31;;;;;;;23.52;11.90;;;;;;;;;;5092854;28;20368;-72
2023/12/06 08:38:57;;;;;;;19.17;11.73;;;;;;;;;;5088624;28;20028;-72
2023/12/06 08:41:23;;;;;;;21.25;13.40;;;;;;;;;;5087767;28;20045;-72
2023/12/06 08:43:49;;;;;;;18.95;11.40;;;;;;;;;;5087756;28;20098;-72
2023/12/06 08:46:16;;;;;;;23.60;13.00;;;;;;;;;;5092635;28;20040;-72
2023/12/06 08:48:42;;;;;;;16.85;11.68;;;;;;;;;;5088502;28;20036;-72
2023/12/06 08:51:09;;;;;;;18.73;12.20;;;;;;;;;;5075557;28;20021;-72
2023/12/06 08:53:35;;;;;;;15.60;11.05;;;;;;;;;;5073489;28;20025;-72
2023/12/06 08:56:01;;;;;;;16.98;10.75;;;;;;;;;;5073055;28;20347;-72
2023/12/06 08:58:27;;;;;;;20.95;10.55;;;;;;;;;;5073180;28;20086;-72
2023/12/06 09:00:53;;;;;;;17.58;11.15;;;;;;;;;;5074781;28;20036;-72
2023/12/06 09:03:20;;;;;;;20.92;11.73;;;;;;;;;;5081509;28;20082;-71
2023/12/06 09:05:48;;;;;;;16.42;11.73;;;;;;;;;;5079734;28;20101;-72
2023/12/06 09:08:15;;;;;;;17.92;11.27;;;;;;;;;;5081770;28;20376;-73
2023/12/06 09:10:41;;;;;;;18.52;10.48;;;;;;;;;;5083790;28;20025;-73
2023/12/06 09:13:07;;;;;;;20.98;12.30;;;;;;;;;;5075809;28;20040;-71
2023/12/06 09:15:33;;;;;;;18.80;10.82;;;;;;;;;;5076346;28;20040;-71
2023/12/06 09:17:59;;;;;;;24.15;13.80;;;;;;;;;;5085437;28;20020;-76
2023/12/06 09:20:26;;;;;;;26.05;13.25;;;;;;;;;;5088346;28;20032;-73
2023/12/06 09:22:52;;;;;;;16.25;12.55;;;;;;;;;;5084062;28;20035;-72
2023/12/06 09:25:18;;;;;;;16.60;11.60;;;;;;;;;;5072149;28;20456;-70
2023/12/06 09:27:44;;;;;;;18.23;11.10;;;;;;;;;;5074578;28;20417;-73
2023/12/06 09:30:10;;;;;;;18.25;10.50;;;;;;;;;;5076124;28;20039;-74
2023/12/06 09:32:36;;;;;;;22.75;14.02;;;;;;;;;;5073366;28;20036;-73
2023/12/06 09:35:02;;;;;;;15.95;10.73;;;;;;;;;;5086193;28;20309;-74
2023/12/06 09:37:29;;;;;;;15.80;10.88;;;;;;;;;;5092789;28;20089;-73
2023/12/06 09:39:55;;;;;;;15.25;10.85;;;;;;;;;;5083633;28;20028;-74
2023/12/06 09:42:22;;;;;;;15.20;10.40;;;;;;;;;;5090429;28;20043;-74
2023/12/06 09:44:49;;;;;;;16.00;10.80;;;;;;;;;;5085631;28;20028;-73
2023/12/06 09:47:15;;;;;;;18.35;11.98;;;;;;;;;;5090246;28;20444;-73
2023/12/06 09:49:43;;;;;;;13.40;10.68;;;;;;;;;;5081719;28;20036;-74
2023/12/06 09:52:17;;;;;;;18.33;10.95;;;;;;;;;;5081001;28;20028;-75
2023/12/06 09:54:44;;;;;;;15.82;9.63;;;;;;;;;;5074283;28;20098;-75
2023/12/06 09:57:10;;;;;;;15.50;10.27;;;;;;;;;;5076495;28;20035;-75
2023/12/06 09:59:36;;;;;;;18.65;10.95;;;;;;;;;;5080143;28;20128;-72
2023/12/06 10:02:02;;;;;;;47.08;20.17;;;;;;;;;;5077067;28;20044;-74
2023/12/06 10:04:28;;;;;;;34.13;18.20;;;;;;;;;;5082620;28;20082;-79
2023/12/06 10:06:55;;;;;;;16.50;10.20;;;;;;;;;;5088891;28;20040;-73
2023/12/06 10:09:21;;;;;;;13.63;10.60;;;;;;;;;;5070861;28;20036;-73
2023/12/06 10:11:47;;;;;;;16.33;10.25;;;;;;;;;;5071583;28;20100;-74
2023/12/06 10:14:17;;;;;;;11.50;8.82;;;;;;;;;;5075418;28;20041;-74
2023/12/06 10:16:43;;;;;;;16.10;9.80;;;;;;;;;;5085504;28;20036;-72
2023/12/06 10:19:10;;;;;;;16.98;10.02;;;;;;;;;;5083890;28;20940;-73
2023/12/06 10:21:36;;;;;;;14.32;9.20;;;;;;;;;;5071517;28;20028;-76
2023/12/06 10:24:02;;;;;;;16.52;9.05;;;;;;;;;;5071442;28;20557;-72
2023/12/06 10:26:29;;;;;;;16.33;9.02;;;;;;;;;;5082100;28;20056;-74
2023/12/06 10:28:55;;;;;;;13.75;8.85;;;;;;;;;;5078347;28;20041;-75
2023/12/06 10:31:22;;;;;;;17.15;9.23;;;;;;;;;;5079671;28;20032;-75
2023/12/06 10:33:57;;;;;;;12.05;8.98;;;;;;;;;;5080452;28;20040;-75
2023/12/06 10:36:27;;;;;;;13.38;7.72;;;;;;;;;;5089122;28;20032;-74
2023/12/06 10:38:55;;;;;;;14.70;8.73;;;;;;;;;;5070073;28;20032;-74
2023/12/06 10:41:24;;;;;;;12.77;7.82;;;;;;;;;;5077204;28;20182;-74
2023/12/06 10:43:51;;;;;;;22.35;12.65;;;;;;;;;;5074637;28;20036;-76
2023/12/06 10:46:17;;;;;;;12.05;7.45;;;;;;;;;;5083385;28;20049;-76
2023/12/06 10:48:44;;;;;;;15.65;8.40;;;;;;;;;;5081656;28;20039;-79
2023/12/06 10:51:10;;;;;;;12.07;8.52;;;;;;;;;;5071151;28;20090;-76
2023/12/06 10:53:37;;;;;;;12.95;7.75;;;;;;;;;;5083774;28;20040;-72
2023/12/06 10:56:04;;;;;;;14.88;8.30;;;;;;;;;;5084996;28;20043;-72
2023/12/06 10:58:30;;;;;;;15.15;8.60;;;;;;;;;;5075343;28;20043;-71
2023/12/06 11:00:58;;;;;;;10.07;8.05;;;;;;;;;;5089922;28;20094;-71
2023/12/06 11:03:24;;;;;;;13.77;8.10;;;;;;;;;;5077045;28;20020;-73
2023/12/06 11:05:53;;;;;;;9.57;7.13;;;;;;;;;;5071444;28;20048;-70
2023/12/06 11:08:38;;;;;;;14.23;7.72;;;;;;;;;;5090245;28;20028;-70
2023/12/06 11:11:07;;;;;;;12.23;7.80;;;;;;;;;;5069709;28;20135;-69
2023/12/06 11:13:53;;;;;;;14.95;8.10;;;;;;;;;;5086487;28;20028;-70
2023/12/06 11:16:37;;;;;;;14.50;7.97;;;;;;;;;;5078340;28;20112;-70
2023/12/06 11:19:04;;;;;;;11.23;7.60;;;;;;;;;;5076742;28;20452;-72
2023/12/06 11:21:30;;;;;;;13.10;6.85;;;;;;;;;;5068190;28;20543;-72
2023/12/06 11:23:57;;;;;;;13.95;7.72;;;;;;;;;;5074497;28;20070;-72
2023/12/06 11:26:24;;;;;;;14.90;6.82;;;;;;;;;;5071703;28;20537;-73
2023/12/06 11:28:54;;;;;;;14.48;7.85;;;;;;;;;;5073462;28;22044;-73
2023/12/06 11:31:20;;;;;;;10.88;7.22;;;;;;;;;;5074435;28;20101;-73
2023/12/06 11:33:56;;;;;;;12.82;7.03;;;;;;;;;;5070502;28;20036;-74
2023/12/06 11:36:25;;;;;;;13.13;7.22;;;;;;;;;;5068924;28;20028;-74
2023/12/06 11:38:51;;;;;;;7.68;6.53;;;;;;;;;;5072208;28;20036;-73
2023/12/06 11:41:17;;;;;;;13.20;7.15;;;;;;;;;;5071828;28;20060;-73
2023/12/06 11:43:47;;;;;;;10.70;7.05;;;;;;;;;;5076391;28;20101;-74
2023/12/06 11:46:14;;;;;;;10.65;6.32;;;;;;;;;;5072104;28;20118;-72
2023/12/06 11:48:41;;;;;;;18.67;8.25;;;;;;;;;;5070527;28;20048;-72
2023/12/06 11:51:07;;;;;;;13.43;7.38;;;;;;;;;;5068848;28;20036;-73
2023/12/06 11:53:36;;;;;;;10.68;6.35;;;;;;;;;;5074974;28;20032;-73
2023/12/06 11:56:03;;;;;;;10.48;6.90;;;;;;;;;;5072615;28;20428;-75
2023/12/06 11:58:30;;;;;;;12.23;6.50;;;;;;;;;;5072735;28;20537;-73
2023/12/06 12:00:57;;;;;;;10.30;6.78;;;;;;;;;;5073411;28;20036;-74
2023/12/06 12:03:23;;;;;;;12.63;6.80;;;;;;;;;;5068202;28;20039;-73
2023/12/06 12:05:51;;;;;;;8.88;6.50;;;;;;;;;;5070449;28;20105;-74
2023/12/06 12:08:18;;;;;;;12.55;6.40;;;;;;;;;;5070251;28;20041;-71
2023/12/06 12:10:44;;;;;;;8.35;5.32;;;;;;;;;;5073802;28;20032;-74
2023/12/06 12:13:19;;;;;;;12.10;6.32;;;;;;;;;;5070462;28;20477;-76
2023/12/06 12:15:56;;;;;;;9.20;5.97;;;;;;;;;;5072568;28;20027;-76
2023/12/06 12:18:24;;;;;;;8.80;6.10;;;;;;;;;;5071608;28;20029;-76
2023/12/06 12:20:51;;;;;;;7.78;5.82;;;;;;;;;;5073224;28;20078;-75
2023/12/06 12:23:17;;;;;;;10.98;6.00;;;;;;;;;;5074689;28;20104;-75
2023/12/06 12:25:49;;;;;;;11.88;5.10;;;;;;;;;;5073204;28;20052;-76
2023/12/06 12:28:17;;;;;;;153.88;85.32;;;;;;;;;;5073696;28;20032;-75
2023/12/06 12:30:43;;;;;;;11.43;8.13;;;;;;;;;;5077509;28;20162;-75
2023/12/06 12:33:10;;;;;;;18.52;9.85;;;;;;;;;;5087837;28;20028;-74
2023/12/06 12:35:36;;;;;;;6.40;5.40;;;;;;;;;;5086069;28;20393;-74
2023/12/06 12:38:02;;;;;;;7.97;5.20;;;;;;;;;;5073181;28;20649;-79
2023/12/06 12:40:29;;;;;;;7.78;5.00;;;;;;;;;;5077182;28;20044;-74
2023/12/06 12:42:55;;;;;;;14.70;5.40;;;;;;;;;;5085038;28;20984;-73
2023/12/06 12:45:21;;;;;;;12.48;5.40;;;;;;;;;;5074988;28;20500;-72
2023/12/06 12:47:47;;;;;;;11.65;5.85;;;;;;;;;;5068043;28;20032;-72
2023/12/06 12:50:19;;;;;;;11.18;6.85;;;;;;;;;;5070270;28;20041;-71
2023/12/06 12:52:46;;;;;;;8.85;5.57;;;;;;;;;;5079018;28;20115;-70
2023/12/06 12:55:12;;;;;;;9.80;6.22;;;;;;;;;;5076042;28;20210;-73
2023/12/06 12:57:41;;;;;;;7.18;5.80;;;;;;;;;;5079472;28;20657;-73
2023/12/06 13:00:08;;;;;;;15.38;9.75;;;;;;;;;;5081023;28;20051;-73
2023/12/06 13:02:35;;;;;;;9.93;6.30;;;;;;;;;;5079457;28;20035;-74
2023/12/06 13:05:04;;;;;;;9.68;5.65;;;;;;;;;;5086645;28;20048;-74
2023/12/06 13:07:33;;;;;;;9.07;5.85;;;;;;;;;;5088698;28;20062;-73
2023/12/06 13:09:59;;;;;;;8.32;5.75;;;;;;;;;;5079880;28;20043;-72
2023/12/06 13:12:25;;;;;;;12.63;6.25;;;;;;;;;;5079797;28;20060;-74
2023/12/06 13:14:53;;;;;;;9.75;6.30;;;;;;;;;;5084536;28;20044;-72
2023/12/06 13:17:19;;;;;;;9.43;6.22;;;;;;;;;;5080980;28;20044;-72
2023/12/06 13:19:45;;;;;;;13.68;7.65;;;;;;;;;;5078142;28;20758;-68
2023/12/06 13:22:11;;;;;;;9.52;6.53;;;;;;;;;;5082816;28;20059;-72
2023/12/06 13:24:38;;;;;;;12.35;6.28;;;;;;;;;;5084539;28;20500;-69
2023/12/06 13:27:05;;;;;;;10.98;6.20;;;;;;;;;;5072346;28;20033;-69
2023/12/06 13:29:31;;;;;;;9.20;6.07;;;;;;;;;;5083685;28;20031;-68
2023/12/06 13:31:58;;;;;;;11.40;6.80;;;;;;;;;;5087353;28;20032;-67
2023/12/06 13:34:26;;;;;;;11.13;6.20;;;;;;;;;;5083256;28;20124;-73
2023/12/06 13:36:53;;;;;;;8.15;5.70;;;;;;;;;;5087546;28;20591;-70
2023/12/06 13:39:19;;;;;;;15.25;6.75;;;;;;;;;;5087965;28;20386;-76
2023/12/06 13:41:45;;;;;;;11.88;5.95;;;;;;;;;;5092665;28;20043;-74
2023/12/06 13:44:11;;;;;;;8.07;5.18;;;;;;;;;;5074499;28;20090;-76
2023/12/06 13:46:37;;;;;;;8.68;5.28;;;;;;;;;;5080471;28;20056;-77
2023/12/06 13:49:04;;;;;;;6.78;5.13;;;;;;;;;;5079308;28;20040;-77
2023/12/06 13:51:30;;;;;;;5.72;5.10;;;;;;;;;;5075888;28;20028;-76
2023/12/06 13:53:57;;;;;;;10.60;5.93;;;;;;;;;;5086706;28;20040;-76
2023/12/06 13:56:24;;;;;;;9.30;5.45;;;;;;;;;;5088383;28;20038;-80
2023/12/06 13:58:50;;;;;;;9.52;5.25;;;;;;;;;;5072796;28;20105;-72
2023/12/06 14:01:16;;;;;;;7.53;4.78;;;;;;;;;;5085210;28;20051;-72
2023/12/06 14:03:43;;;;;;;6.03;4.40;;;;;;;;;;5090046;28;20473;-73
2023/12/06 14:06:09;;;;;;;6.95;4.90;;;;;;;;;;5075949;28;20052;-74
2023/12/06 14:08:36;;;;;;;5.78;4.38;;;;;;;;;;5078055;28;20040;-77
2023/12/06 14:11:03;;;;;;;7.18;4.50;;;;;;;;;;5083747;28;20051;-78
2023/12/06 14:13:29;;;;;;;7.82;4.35;;;;;;;;;;5083574;28;20394;-73
2023/12/06 14:15:56;;;;;;;6.22;4.05;;;;;;;;;;5076286;28;20032;-81
2023/12/06 14:18:23;;;;;;;9.00;5.05;;;;;;;;;;5071584;28;20085;-83